sensor_id;sensor_type;location;lat;lon;timestamp;P1;durP1;ratioP1;P2;durP2;ratioP2
43088;SDS011;28709;52.030;5.652;2023-04-25T00:00:11;7.80;;;2.00;;
43088;SDS011;28709;52.030;5.652;2023-04-25T00:02:36;6.63;;;1.60;;
43088;SDS011;28709;52.030;5.652;2023-04-25T00:05:02;4.47;;;1.83;;
43088;SDS011;28709;52.030;5.652;2023-04-25T00:07:28;4.95;;;1.70;;
43088;SDS011;28709;52.030;5.652;2023-04-25T00:09:54;8.40;;;1.70;;
43088;SDS011;28709;52.030;5.652;2023-04-25T00:12:19;5.38;;;1.95;;
43088;SDS011;28709;52.030;5.652;2023-04-25T00:14:46;3.95;;;1.65;;
43088;SDS011;28709;52.030;5.652;2023-04-25T00:17:14;9.52;;;2.80;;
43088;SDS011;28709;52.030;5.652;2023-04-25T00:19:41;8.82;;;2.78;;
43088;SDS011;28709;52.030;5.652;2023-04-25T00:22:07;6.18;;;1.75;;
43088;SDS011;28709;52.030;5.652;2023-04-25T00:24:33;4.50;;;1.88;;
43088;SDS011;28709;52.030;5.652;2023-04-25T00:26:58;6.93;;;1.90;;
43088;SDS011;28709;52.030;5.652;2023-04-25T00:29:24;7.88;;;1.77;;
43088;SDS011;28709;52.030;5.652;2023-04-25T00:31:49;6.28;;;1.90;;
43088;SDS011;28709;52.030;5.652;2023-04-25T00:34:15;20.05;;;3.83;;
43088;SDS011;28709;52.030;5.652;2023-04-25T00:36:41;6.85;;;2.28;;
43088;SDS011;28709;52.030;5.652;2023-04-25T00:39:06;9.93;;;2.25;;
43088;SDS011;28709;52.030;5.652;2023-04-25T00:41:32;16.23;;;2.30;;
43088;SDS011;28709;52.030;5.652;2023-04-25T00:43:58;7.40;;;1.90;;
43088;SDS011;28709;52.030;5.652;2023-04-25T00:46:25;4.35;;;1.80;;
43088;SDS011;28709;52.030;5.652;2023-04-25T00:48:51;9.65;;;2.35;;
43088;SDS011;28709;52.030;5.652;2023-04-25T00:51:19;8.32;;;2.35;;
43088;SDS011;28709;52.030;5.652;2023-04-25T00:53:46;8.43;;;1.92;;
43088;SDS011;28709;52.030;5.652;2023-04-25T00:56:12;9.20;;;4.03;;
43088;SDS011;28709;52.030;5.652;2023-04-25T00:58:38;5.85;;;2.13;;
43088;SDS011;28709;52.030;5.652;2023-04-25T01:01:06;9.25;;;2.78;;
43088;SDS011;28709;52.030;5.652;2023-04-25T01:03:33;12.02;;;2.65;;
43088;SDS011;28709;52.030;5.652;2023-04-25T01:06:05;13.40;;;3.67;;
43088;SDS011;28709;52.030;5.652;2023-04-25T01:08:36;15.70;;;2.88;;
43088;SDS011;28709;52.030;5.652;2023-04-25T01:11:02;11.23;;;3.40;;
43088;SDS011;28709;52.030;5.652;2023-04-25T01:13:29;14.05;;;3.38;;
43088;SDS011;28709;52.030;5.652;2023-04-25T01:15:56;11.35;;;3.13;;
43088;SDS011;28709;52.030;5.652;2023-04-25T01:18:23;12.25;;;3.67;;
43088;SDS011;28709;52.030;5.652;2023-04-25T01:20:50;12.55;;;2.40;;
43088;SDS011;28709;52.030;5.652;2023-04-25T01:23:17;7.80;;;2.53;;
43088;SDS011;28709;52.030;5.652;2023-04-25T01:25:44;13.00;;;2.63;;
43088;SDS011;28709;52.030;5.652;2023-04-25T01:28:11;15.50;;;2.60;;
43088;SDS011;28709;52.030;5.652;2023-04-25T01:30:37;10.85;;;2.75;;
43088;SDS011;28709;52.030;5.652;2023-04-25T01:33:04;12.43;;;2.75;;
43088;SDS011;28709;52.030;5.652;2023-04-25T01:35:31;9.55;;;2.58;;
43088;SDS011;28709;52.030;5.652;2023-04-25T01:37:57;7.05;;;2.55;;
43088;SDS011;28709;52.030;5.652;2023-04-25T01:40:23;11.98;;;2.40;;
43088;SDS011;28709;52.030;5.652;2023-04-25T01:42:50;10.43;;;2.20;;
43088;SDS011;28709;52.030;5.652;2023-04-25T01:45:16;8.75;;;2.22;;
43088;SDS011;28709;52.030;5.652;2023-04-25T01:47:43;14.25;;;3.90;;
43088;SDS011;28709;52.030;5.652;2023-04-25T01:50:13;5.88;;;1.70;;
43088;SDS011;28709;52.030;5.652;2023-04-25T01:52:40;8.40;;;3.35;;
43088;SDS011;28709;52.030;5.652;2023-04-25T01:55:05;10.55;;;2.72;;
43088;SDS011;28709;52.030;5.652;2023-04-25T01:57:31;5.63;;;2.70;;
43088;SDS011;28709;52.030;5.652;2023-04-25T01:59:58;12.43;;;2.95;;
43088;SDS011;28709;52.030;5.652;2023-04-25T02:02:26;13.77;;;3.67;;
43088;SDS011;28709;52.030;5.652;2023-04-25T02:04:51;15.32;;;3.45;;
43088;SDS011;28709;52.030;5.652;2023-04-25T02:07:17;9.20;;;2.08;;
43088;SDS011;28709;52.030;5.652;2023-04-25T02:09:43;8.88;;;2.65;;
43088;SDS011;28709;52.030;5.652;2023-04-25T02:12:09;14.30;;;2.90;;
43088;SDS011;28709;52.030;5.652;2023-04-25T02:14:35;7.35;;;2.50;;
43088;SDS011;28709;52.030;5.652;2023-04-25T02:17:01;11.50;;;3.83;;
43088;SDS011;28709;52.030;5.652;2023-04-25T02:19:27;11.27;;;3.30;;
43088;SDS011;28709;52.030;5.652;2023-04-25T02:21:53;10.02;;;3.40;;
43088;SDS011;28709;52.030;5.652;2023-04-25T02:24:19;6.13;;;2.33;;
43088;SDS011;28709;52.030;5.652;2023-04-25T02:26:45;11.75;;;3.35;;
43088;SDS011;28709;52.030;5.652;2023-04-25T02:29:11;6.90;;;2.42;;
43088;SDS011;28709;52.030;5.652;2023-04-25T02:31:37;10.35;;;2.80;;
43088;SDS011;28709;52.030;5.652;2023-04-25T02:34:03;17.50;;;4.05;;
43088;SDS011;28709;52.030;5.652;2023-04-25T02:36:29;11.65;;;3.10;;
43088;SDS011;28709;52.030;5.652;2023-04-25T02:38:57;6.70;;;2.10;;
43088;SDS011;28709;52.030;5.652;2023-04-25T02:41:22;5.28;;;2.22;;
43088;SDS011;28709;52.030;5.652;2023-04-25T02:43:48;12.77;;;2.53;;
43088;SDS011;28709;52.030;5.652;2023-04-25T02:46:14;16.70;;;4.30;;
43088;SDS011;28709;52.030;5.652;2023-04-25T02:48:39;6.78;;;2.42;;
43088;SDS011;28709;52.030;5.652;2023-04-25T02:51:05;9.45;;;2.45;;
43088;SDS011;28709;52.030;5.652;2023-04-25T02:53:31;9.80;;;2.83;;
43088;SDS011;28709;52.030;5.652;2023-04-25T02:55:56;9.82;;;2.15;;
43088;SDS011;28709;52.030;5.652;2023-04-25T02:58:24;8.30;;;2.40;;
43088;SDS011;28709;52.030;5.652;2023-04-25T03:00:49;7.85;;;2.13;;
43088;SDS011;28709;52.030;5.652;2023-04-25T03:03:15;10.95;;;3.00;;
43088;SDS011;28709;52.030;5.652;2023-04-25T03:05:42;7.63;;;2.17;;
43088;SDS011;28709;52.030;5.652;2023-04-25T03:08:08;8.52;;;2.40;;
43088;SDS011;28709;52.030;5.652;2023-04-25T03:10:34;6.43;;;2.15;;
43088;SDS011;28709;52.030;5.652;2023-04-25T03:13:00;8.35;;;1.85;;
43088;SDS011;28709;52.030;5.652;2023-04-25T03:15:26;8.70;;;3.40;;
43088;SDS011;28709;52.030;5.652;2023-04-25T03:17:51;9.00;;;2.38;;
43088;SDS011;28709;52.030;5.652;2023-04-25T03:20:17;10.23;;;2.38;;
43088;SDS011;28709;52.030;5.652;2023-04-25T03:22:42;9.60;;;2.58;;
43088;SDS011;28709;52.030;5.652;2023-04-25T03:25:09;11.40;;;2.88;;
43088;SDS011;28709;52.030;5.652;2023-04-25T03:27:35;14.35;;;2.92;;
43088;SDS011;28709;52.030;5.652;2023-04-25T03:30:00;10.15;;;3.17;;
43088;SDS011;28709;52.030;5.652;2023-04-25T03:32:26;11.43;;;2.50;;
43088;SDS011;28709;52.030;5.652;2023-04-25T03:34:52;5.47;;;1.65;;
43088;SDS011;28709;52.030;5.652;2023-04-25T03:37:17;9.07;;;2.08;;
43088;SDS011;28709;52.030;5.652;2023-04-25T03:39:43;10.55;;;1.90;;
43088;SDS011;28709;52.030;5.652;2023-04-25T03:42:08;5.90;;;2.13;;
43088;SDS011;28709;52.030;5.652;2023-04-25T03:44:34;7.38;;;2.38;;
43088;SDS011;28709;52.030;5.652;2023-04-25T03:47:00;9.63;;;2.50;;
43088;SDS011;28709;52.030;5.652;2023-04-25T03:49:25;9.45;;;2.15;;
43088;SDS011;28709;52.030;5.652;2023-04-25T03:51:51;10.88;;;2.30;;
43088;SDS011;28709;52.030;5.652;2023-04-25T03:54:16;11.38;;;2.22;;
43088;SDS011;28709;52.030;5.652;2023-04-25T03:56:42;11.30;;;3.45;;
43088;SDS011;28709;52.030;5.652;2023-04-25T03:59:08;14.57;;;2.72;;
43088;SDS011;28709;52.030;5.652;2023-04-25T04:01:33;17.30;;;2.90;;
43088;SDS011;28709;52.030;5.652;2023-04-25T04:03:59;8.57;;;2.60;;
43088;SDS011;28709;52.030;5.652;2023-04-25T04:06:25;14.43;;;2.38;;
43088;SDS011;28709;52.030;5.652;2023-04-25T04:08:50;13.32;;;3.70;;
43088;SDS011;28709;52.030;5.652;2023-04-25T04:11:16;6.72;;;2.25;;
43088;SDS011;28709;52.030;5.652;2023-04-25T04:13:41;8.65;;;2.67;;
43088;SDS011;28709;52.030;5.652;2023-04-25T04:16:07;15.07;;;4.35;;
43088;SDS011;28709;52.030;5.652;2023-04-25T04:18:33;10.15;;;3.22;;
43088;SDS011;28709;52.030;5.652;2023-04-25T04:20:59;8.40;;;2.67;;
43088;SDS011;28709;52.030;5.652;2023-04-25T04:23:25;15.32;;;2.85;;
43088;SDS011;28709;52.030;5.652;2023-04-25T04:25:52;15.05;;;2.58;;
43088;SDS011;28709;52.030;5.652;2023-04-25T04:28:19;11.23;;;2.90;;
43088;SDS011;28709;52.030;5.652;2023-04-25T04:30:45;10.07;;;2.15;;
43088;SDS011;28709;52.030;5.652;2023-04-25T04:33:11;5.68;;;2.10;;
43088;SDS011;28709;52.030;5.652;2023-04-25T04:35:37;12.75;;;2.33;;
43088;SDS011;28709;52.030;5.652;2023-04-25T04:38:02;11.65;;;2.83;;
43088;SDS011;28709;52.030;5.652;2023-04-25T04:40:28;7.90;;;2.45;;
43088;SDS011;28709;52.030;5.652;2023-04-25T04:42:56;9.60;;;2.38;;
43088;SDS011;28709;52.030;5.652;2023-04-25T04:45:22;8.65;;;2.42;;
43088;SDS011;28709;52.030;5.652;2023-04-25T04:47:49;16.20;;;3.63;;
43088;SDS011;28709;52.030;5.652;2023-04-25T04:50:15;7.70;;;2.80;;
43088;SDS011;28709;52.030;5.652;2023-04-25T04:52:41;8.63;;;2.13;;
43088;SDS011;28709;52.030;5.652;2023-04-25T04:55:07;11.80;;;2.30;;
43088;SDS011;28709;52.030;5.652;2023-04-25T04:57:34;9.52;;;2.17;;
43088;SDS011;28709;52.030;5.652;2023-04-25T05:00:00;8.68;;;2.70;;
43088;SDS011;28709;52.030;5.652;2023-04-25T05:02:26;10.40;;;3.17;;
43088;SDS011;28709;52.030;5.652;2023-04-25T05:04:52;5.70;;;1.50;;
43088;SDS011;28709;52.030;5.652;2023-04-25T05:07:18;7.28;;;2.28;;
43088;SDS011;28709;52.030;5.652;2023-04-25T05:09:44;7.38;;;2.30;;
43088;SDS011;28709;52.030;5.652;2023-04-25T05:12:09;6.38;;;1.85;;
43088;SDS011;28709;52.030;5.652;2023-04-25T05:14:35;5.80;;;1.98;;
43088;SDS011;28709;52.030;5.652;2023-04-25T05:17:01;9.40;;;2.50;;
43088;SDS011;28709;52.030;5.652;2023-04-25T05:19:29;9.55;;;2.20;;
43088;SDS011;28709;52.030;5.652;2023-04-25T05:21:55;10.88;;;2.85;;
43088;SDS011;28709;52.030;5.652;2023-04-25T05:24:21;8.40;;;1.98;;
43088;SDS011;28709;52.030;5.652;2023-04-25T05:26:46;9.48;;;2.45;;
43088;SDS011;28709;52.030;5.652;2023-04-25T05:29:12;4.07;;;2.00;;
43088;SDS011;28709;52.030;5.652;2023-04-25T05:31:37;10.23;;;2.35;;
43088;SDS011;28709;52.030;5.652;2023-04-25T05:34:03;8.18;;;1.90;;
43088;SDS011;28709;52.030;5.652;2023-04-25T05:36:29;6.75;;;2.03;;
43088;SDS011;28709;52.030;5.652;2023-04-25T05:38:56;7.30;;;2.47;;
43088;SDS011;28709;52.030;5.652;2023-04-25T05:41:21;5.18;;;1.77;;
43088;SDS011;28709;52.030;5.652;2023-04-25T05:43:47;7.65;;;1.73;;
43088;SDS011;28709;52.030;5.652;2023-04-25T05:46:14;6.95;;;2.03;;
43088;SDS011;28709;52.030;5.652;2023-04-25T05:48:42;7.93;;;2.85;;
43088;SDS011;28709;52.030;5.652;2023-04-25T05:51:08;11.82;;;2.78;;
43088;SDS011;28709;52.030;5.652;2023-04-25T05:53:34;6.10;;;2.10;;
43088;SDS011;28709;52.030;5.652;2023-04-25T05:56:00;6.45;;;2.53;;
43088;SDS011;28709;52.030;5.652;2023-04-25T05:58:26;8.20;;;1.70;;
43088;SDS011;28709;52.030;5.652;2023-04-25T06:00:51;12.75;;;2.80;;
43088;SDS011;28709;52.030;5.652;2023-04-25T06:03:17;8.85;;;2.60;;
43088;SDS011;28709;52.030;5.652;2023-04-25T06:05:42;7.45;;;1.90;;
43088;SDS011;28709;52.030;5.652;2023-04-25T06:08:09;7.25;;;2.25;;
43088;SDS011;28709;52.030;5.652;2023-04-25T06:10:35;3.72;;;1.50;;
43088;SDS011;28709;52.030;5.652;2023-04-25T06:13:01;12.52;;;2.17;;
43088;SDS011;28709;52.030;5.652;2023-04-25T06:15:27;6.40;;;1.98;;
43088;SDS011;28709;52.030;5.652;2023-04-25T06:17:53;12.98;;;2.33;;
43088;SDS011;28709;52.030;5.652;2023-04-25T06:20:19;8.90;;;1.90;;
43088;SDS011;28709;52.030;5.652;2023-04-25T06:22:49;9.55;;;1.90;;
43088;SDS011;28709;52.030;5.652;2023-04-25T06:25:16;10.55;;;1.88;;
43088;SDS011;28709;52.030;5.652;2023-04-25T06:27:42;6.03;;;1.60;;
43088;SDS011;28709;52.030;5.652;2023-04-25T06:30:08;9.00;;;1.67;;
43088;SDS011;28709;52.030;5.652;2023-04-25T06:32:34;7.30;;;1.55;;
43088;SDS011;28709;52.030;5.652;2023-04-25T06:35:00;11.90;;;2.50;;
43088;SDS011;28709;52.030;5.652;2023-04-25T06:37:26;8.80;;;2.70;;
43088;SDS011;28709;52.030;5.652;2023-04-25T06:39:51;7.18;;;1.83;;
43088;SDS011;28709;52.030;5.652;2023-04-25T06:42:17;9.60;;;1.67;;
43088;SDS011;28709;52.030;5.652;2023-04-25T06:44:43;10.27;;;1.92;;
43088;SDS011;28709;52.030;5.652;2023-04-25T06:47:08;16.73;;;2.63;;
43088;SDS011;28709;52.030;5.652;2023-04-25T06:49:34;9.07;;;1.83;;
43088;SDS011;28709;52.030;5.652;2023-04-25T06:52:00;6.78;;;1.75;;
43088;SDS011;28709;52.030;5.652;2023-04-25T06:54:25;7.00;;;1.88;;
43088;SDS011;28709;52.030;5.652;2023-04-25T06:56:54;8.57;;;1.77;;
43088;SDS011;28709;52.030;5.652;2023-04-25T06:59:23;7.30;;;1.13;;
43088;SDS011;28709;52.030;5.652;2023-04-25T07:01:48;9.07;;;2.20;;
43088;SDS011;28709;52.030;5.652;2023-04-25T07:04:14;4.35;;;1.63;;
43088;SDS011;28709;52.030;5.652;2023-04-25T07:06:40;10.57;;;1.83;;
43088;SDS011;28709;52.030;5.652;2023-04-25T07:09:09;9.88;;;2.22;;
43088;SDS011;28709;52.030;5.652;2023-04-25T07:11:37;8.23;;;1.83;;
43088;SDS011;28709;52.030;5.652;2023-04-25T07:14:03;10.10;;;2.42;;
43088;SDS011;28709;52.030;5.652;2023-04-25T07:16:29;5.70;;;1.83;;
43088;SDS011;28709;52.030;5.652;2023-04-25T07:18:54;9.75;;;1.88;;
43088;SDS011;28709;52.030;5.652;2023-04-25T07:21:20;5.45;;;1.30;;
43088;SDS011;28709;52.030;5.652;2023-04-25T07:23:46;6.43;;;1.67;;
43088;SDS011;28709;52.030;5.652;2023-04-25T07:26:12;9.52;;;1.65;;
43088;SDS011;28709;52.030;5.652;2023-04-25T07:28:38;6.70;;;1.63;;
43088;SDS011;28709;52.030;5.652;2023-04-25T07:31:04;10.48;;;1.85;;
43088;SDS011;28709;52.030;5.652;2023-04-25T07:33:30;15.25;;;1.75;;
43088;SDS011;28709;52.030;5.652;2023-04-25T07:35:56;6.38;;;1.90;;
43088;SDS011;28709;52.030;5.652;2023-04-25T07:38:22;6.05;;;1.45;;
43088;SDS011;28709;52.030;5.652;2023-04-25T07:40:47;8.70;;;1.80;;
43088;SDS011;28709;52.030;5.652;2023-04-25T07:43:13;10.52;;;2.13;;
43088;SDS011;28709;52.030;5.652;2023-04-25T07:45:42;8.73;;;1.60;;
43088;SDS011;28709;52.030;5.652;2023-04-25T07:48:10;7.75;;;1.70;;
43088;SDS011;28709;52.030;5.652;2023-04-25T07:50:36;12.27;;;1.63;;
43088;SDS011;28709;52.030;5.652;2023-04-25T07:53:02;7.43;;;1.85;;
43088;SDS011;28709;52.030;5.652;2023-04-25T07:55:28;13.02;;;1.73;;
43088;SDS011;28709;52.030;5.652;2023-04-25T07:57:53;7.78;;;1.25;;
43088;SDS011;28709;52.030;5.652;2023-04-25T08:00:19;6.25;;;1.13;;
43088;SDS011;28709;52.030;5.652;2023-04-25T08:02:45;9.50;;;1.60;;
43088;SDS011;28709;52.030;5.652;2023-04-25T08:05:11;5.97;;;1.42;;
43088;SDS011;28709;52.030;5.652;2023-04-25T08:07:39;7.07;;;1.27;;
43088;SDS011;28709;52.030;5.652;2023-04-25T08:10:06;6.05;;;1.20;;
43088;SDS011;28709;52.030;5.652;2023-04-25T08:12:32;8.20;;;1.50;;
43088;SDS011;28709;52.030;5.652;2023-04-25T08:14:58;7.63;;;1.75;;
43088;SDS011;28709;52.030;5.652;2023-04-25T08:17:24;10.00;;;2.17;;
43088;SDS011;28709;52.030;5.652;2023-04-25T08:19:49;8.98;;;1.65;;
43088;SDS011;28709;52.030;5.652;2023-04-25T08:22:15;6.43;;;1.45;;
43088;SDS011;28709;52.030;5.652;2023-04-25T08:24:41;6.95;;;1.58;;
43088;SDS011;28709;52.030;5.652;2023-04-25T08:27:07;6.70;;;1.42;;
43088;SDS011;28709;52.030;5.652;2023-04-25T08:29:33;7.18;;;1.65;;
43088;SDS011;28709;52.030;5.652;2023-04-25T08:31:59;5.75;;;1.23;;
43088;SDS011;28709;52.030;5.652;2023-04-25T08:34:25;9.45;;;1.25;;
43088;SDS011;28709;52.030;5.652;2023-04-25T08:36:51;7.80;;;1.70;;
43088;SDS011;28709;52.030;5.652;2023-04-25T08:39:17;4.35;;;1.13;;
43088;SDS011;28709;52.030;5.652;2023-04-25T08:41:43;3.40;;;1.02;;
43088;SDS011;28709;52.030;5.652;2023-04-25T08:44:09;11.20;;;1.65;;
43088;SDS011;28709;52.030;5.652;2023-04-25T08:46:38;9.52;;;2.30;;
43088;SDS011;28709;52.030;5.652;2023-04-25T08:49:07;6.22;;;1.10;;
43088;SDS011;28709;52.030;5.652;2023-04-25T08:51:43;9.60;;;1.50;;
43088;SDS011;28709;52.030;5.652;2023-04-25T08:54:14;5.82;;;1.45;;
43088;SDS011;28709;52.030;5.652;2023-04-25T08:56:41;6.55;;;1.15;;
43088;SDS011;28709;52.030;5.652;2023-04-25T08:59:11;3.10;;;0.82;;
43088;SDS011;28709;52.030;5.652;2023-04-25T09:01:37;3.40;;;1.17;;
43088;SDS011;28709;52.030;5.652;2023-04-25T09:04:03;8.32;;;1.25;;
43088;SDS011;28709;52.030;5.652;2023-04-25T09:06:29;5.68;;;0.90;;
43088;SDS011;28709;52.030;5.652;2023-04-25T09:09:05;5.75;;;1.13;;
43088;SDS011;28709;52.030;5.652;2023-04-25T09:11:33;5.47;;;1.38;;
43088;SDS011;28709;52.030;5.652;2023-04-25T09:14:10;2.42;;;0.80;;
43088;SDS011;28709;52.030;5.652;2023-04-25T09:16:40;6.15;;;0.80;;
43088;SDS011;28709;52.030;5.652;2023-04-25T09:19:22;6.30;;;1.05;;
43088;SDS011;28709;52.030;5.652;2023-04-25T09:21:50;6.38;;;1.10;;
43088;SDS011;28709;52.030;5.652;2023-04-25T09:24:19;3.00;;;1.00;;
43088;SDS011;28709;52.030;5.652;2023-04-25T09:26:57;4.53;;;0.98;;
43088;SDS011;28709;52.030;5.652;2023-04-25T09:29:30;6.15;;;1.20;;
43088;SDS011;28709;52.030;5.652;2023-04-25T09:34:48;7.65;;;1.70;;
43088;SDS011;28709;52.030;5.652;2023-04-25T09:39:49;6.70;;;1.30;;
43088;SDS011;28709;52.030;5.652;2023-04-25T09:42:15;2.70;;;1.00;;
43088;SDS011;28709;52.030;5.652;2023-04-25T09:44:42;6.07;;;1.25;;
43088;SDS011;28709;52.030;5.652;2023-04-25T09:47:12;4.95;;;1.13;;
43088;SDS011;28709;52.030;5.652;2023-04-25T09:49:40;5.13;;;1.55;;
43088;SDS011;28709;52.030;5.652;2023-04-25T09:52:13;3.50;;;0.85;;
43088;SDS011;28709;52.030;5.652;2023-04-25T09:54:41;4.85;;;0.90;;
43088;SDS011;28709;52.030;5.652;2023-04-25T09:57:14;5.68;;;1.40;;
43088;SDS011;28709;52.030;5.652;2023-04-25T09:59:45;4.50;;;1.00;;
43088;SDS011;28709;52.030;5.652;2023-04-25T10:02:16;4.95;;;1.80;;
43088;SDS011;28709;52.030;5.652;2023-04-25T10:04:46;7.40;;;1.00;;
43088;SDS011;28709;52.030;5.652;2023-04-25T10:07:13;4.25;;;1.02;;
43088;SDS011;28709;52.030;5.652;2023-04-25T10:09:40;7.82;;;1.17;;
43088;SDS011;28709;52.030;5.652;2023-04-25T10:12:07;4.05;;;1.00;;
43088;SDS011;28709;52.030;5.652;2023-04-25T10:14:33;5.25;;;1.00;;
43088;SDS011;28709;52.030;5.652;2023-04-25T10:16:59;3.67;;;1.00;;
43088;SDS011;28709;52.030;5.652;2023-04-25T10:19:27;5.75;;;1.02;;
43088;SDS011;28709;52.030;5.652;2023-04-25T10:24:57;6.25;;;0.98;;
43088;SDS011;28709;52.030;5.652;2023-04-25T10:27:24;7.15;;;1.40;;
43088;SDS011;28709;52.030;5.652;2023-04-25T10:30:05;4.32;;;0.90;;
43088;SDS011;28709;52.030;5.652;2023-04-25T10:32:39;4.45;;;1.15;;
43088;SDS011;28709;52.030;5.652;2023-04-25T10:35:10;4.32;;;1.00;;
43088;SDS011;28709;52.030;5.652;2023-04-25T10:37:56;4.45;;;1.40;;
43088;SDS011;28709;52.030;5.652;2023-04-25T10:40:22;5.30;;;1.50;;
43088;SDS011;28709;52.030;5.652;2023-04-25T10:42:48;8.32;;;1.45;;
43088;SDS011;28709;52.030;5.652;2023-04-25T10:45:13;7.00;;;1.30;;
43088;SDS011;28709;52.030;5.652;2023-04-25T10:47:45;5.57;;;1.42;;
43088;SDS011;28709;52.030;5.652;2023-04-25T10:50:11;4.88;;;1.15;;
43088;SDS011;28709;52.030;5.652;2023-04-25T10:52:39;4.65;;;0.75;;
43088;SDS011;28709;52.030;5.652;2023-04-25T10:55:05;2.35;;;0.82;;
43088;SDS011;28709;52.030;5.652;2023-04-25T10:57:41;2.90;;;1.10;;
43088;SDS011;28709;52.030;5.652;2023-04-25T11:02:47;6.38;;;1.25;;
43088;SDS011;28709;52.030;5.652;2023-04-25T11:05:18;4.43;;;1.08;;
43088;SDS011;28709;52.030;5.652;2023-04-25T11:07:54;4.30;;;1.10;;
43088;SDS011;28709;52.030;5.652;2023-04-25T11:10:30;3.58;;;1.27;;
43088;SDS011;28709;52.030;5.652;2023-04-25T11:12:57;5.93;;;1.03;;
43088;SDS011;28709;52.030;5.652;2023-04-25T11:15:23;2.22;;;0.70;;
43088;SDS011;28709;52.030;5.652;2023-04-25T11:17:53;8.32;;;0.90;;
43088;SDS011;28709;52.030;5.652;2023-04-25T11:20:20;3.90;;;0.98;;
43088;SDS011;28709;52.030;5.652;2023-04-25T11:22:46;4.18;;;1.00;;
43088;SDS011;28709;52.030;5.652;2023-04-25T11:25:13;3.45;;;1.27;;
43088;SDS011;28709;52.030;5.652;2023-04-25T11:27:53;7.43;;;0.90;;
43088;SDS011;28709;52.030;5.652;2023-04-25T11:30:21;2.30;;;0.70;;
43088;SDS011;28709;52.030;5.652;2023-04-25T11:32:47;2.67;;;0.73;;
43088;SDS011;28709;52.030;5.652;2023-04-25T11:35:13;2.72;;;0.80;;
43088;SDS011;28709;52.030;5.652;2023-04-25T11:37:40;3.42;;;1.17;;
43088;SDS011;28709;52.030;5.652;2023-04-25T11:40:07;4.15;;;1.52;;
43088;SDS011;28709;52.030;5.652;2023-04-25T11:42:36;3.78;;;1.05;;
43088;SDS011;28709;52.030;5.652;2023-04-25T11:45:03;3.97;;;0.85;;
43088;SDS011;28709;52.030;5.652;2023-04-25T11:47:30;1.98;;;0.60;;
43088;SDS011;28709;52.030;5.652;2023-04-25T11:49:59;6.10;;;2.25;;
43088;SDS011;28709;52.030;5.652;2023-04-25T11:55:13;6.80;;;1.08;;
43088;SDS011;28709;52.030;5.652;2023-04-25T11:57:41;7.43;;;1.77;;
43088;SDS011;28709;52.030;5.652;2023-04-25T12:00:11;4.80;;;0.82;;
43088;SDS011;28709;52.030;5.652;2023-04-25T12:02:42;3.28;;;1.05;;
43088;SDS011;28709;52.030;5.652;2023-04-25T12:05:10;5.65;;;0.95;;
43088;SDS011;28709;52.030;5.652;2023-04-25T12:07:36;4.65;;;1.17;;
43088;SDS011;28709;52.030;5.652;2023-04-25T12:10:06;4.22;;;0.98;;
43088;SDS011;28709;52.030;5.652;2023-04-25T12:12:33;2.88;;;0.98;;
43088;SDS011;28709;52.030;5.652;2023-04-25T12:17:35;5.03;;;1.10;;
43088;SDS011;28709;52.030;5.652;2023-04-25T12:20:09;4.57;;;1.10;;
43088;SDS011;28709;52.030;5.652;2023-04-25T12:25:03;4.28;;;1.42;;
43088;SDS011;28709;52.030;5.652;2023-04-25T12:27:30;9.77;;;1.67;;
43088;SDS011;28709;52.030;5.652;2023-04-25T12:29:57;2.88;;;1.20;;
43088;SDS011;28709;52.030;5.652;2023-04-25T12:32:23;6.35;;;1.48;;
43088;SDS011;28709;52.030;5.652;2023-04-25T12:34:49;6.63;;;1.20;;
43088;SDS011;28709;52.030;5.652;2023-04-25T12:37:15;4.28;;;1.20;;
43088;SDS011;28709;52.030;5.652;2023-04-25T12:39:40;5.45;;;1.23;;
43088;SDS011;28709;52.030;5.652;2023-04-25T12:42:06;4.00;;;0.90;;
43088;SDS011;28709;52.030;5.652;2023-04-25T12:44:37;9.65;;;2.03;;
43088;SDS011;28709;52.030;5.652;2023-04-25T12:47:03;11.82;;;2.30;;
43088;SDS011;28709;52.030;5.652;2023-04-25T12:49:28;7.35;;;1.25;;
43088;SDS011;28709;52.030;5.652;2023-04-25T12:51:54;6.28;;;1.40;;
43088;SDS011;28709;52.030;5.652;2023-04-25T12:54:20;5.90;;;1.52;;
43088;SDS011;28709;52.030;5.652;2023-04-25T12:56:45;4.10;;;0.98;;
43088;SDS011;28709;52.030;5.652;2023-04-25T12:59:12;10.65;;;3.95;;
43088;SDS011;28709;52.030;5.652;2023-04-25T13:01:37;4.90;;;1.85;;
43088;SDS011;28709;52.030;5.652;2023-04-25T13:04:03;7.40;;;1.95;;
43088;SDS011;28709;52.030;5.652;2023-04-25T13:06:29;5.88;;;1.13;;
43088;SDS011;28709;52.030;5.652;2023-04-25T13:08:55;3.67;;;0.93;;
43088;SDS011;28709;52.030;5.652;2023-04-25T13:11:21;8.32;;;1.25;;
43088;SDS011;28709;52.030;5.652;2023-04-25T13:13:47;3.72;;;1.40;;
43088;SDS011;28709;52.030;5.652;2023-04-25T13:16:12;3.28;;;1.08;;
43088;SDS011;28709;52.030;5.652;2023-04-25T13:18:40;9.07;;;1.50;;
43088;SDS011;28709;52.030;5.652;2023-04-25T13:21:06;6.43;;;1.10;;
43088;SDS011;28709;52.030;5.652;2023-04-25T13:23:33;6.00;;;1.15;;
43088;SDS011;28709;52.030;5.652;2023-04-25T13:25:59;3.20;;;0.88;;
43088;SDS011;28709;52.030;5.652;2023-04-25T13:28:26;7.43;;;2.05;;
43088;SDS011;28709;52.030;5.652;2023-04-25T13:30:52;4.93;;;0.80;;
43088;SDS011;28709;52.030;5.652;2023-04-25T13:33:19;8.48;;;1.20;;
43088;SDS011;28709;52.030;5.652;2023-04-25T13:35:45;4.95;;;1.15;;
43088;SDS011;28709;52.030;5.652;2023-04-25T13:38:18;3.17;;;1.00;;
43088;SDS011;28709;52.030;5.652;2023-04-25T13:40:45;3.53;;;0.90;;
43088;SDS011;28709;52.030;5.652;2023-04-25T13:43:10;2.20;;;0.70;;
43088;SDS011;28709;52.030;5.652;2023-04-25T13:45:36;5.93;;;0.93;;
43088;SDS011;28709;52.030;5.652;2023-04-25T13:48:02;2.08;;;0.88;;
43088;SDS011;28709;52.030;5.652;2023-04-25T13:50:27;7.47;;;1.65;;
43088;SDS011;28709;52.030;5.652;2023-04-25T13:52:53;3.03;;;0.73;;
43088;SDS011;28709;52.030;5.652;2023-04-25T13:55:19;10.50;;;2.47;;
43088;SDS011;28709;52.030;5.652;2023-04-25T13:57:44;6.28;;;1.08;;
43088;SDS011;28709;52.030;5.652;2023-04-25T14:00:10;3.38;;;0.93;;
43088;SDS011;28709;52.030;5.652;2023-04-25T14:02:37;3.42;;;1.17;;
43088;SDS011;28709;52.030;5.652;2023-04-25T14:05:03;7.22;;;1.92;;
43088;SDS011;28709;52.030;5.652;2023-04-25T14:07:29;6.10;;;1.75;;
43088;SDS011;28709;52.030;5.652;2023-04-25T14:09:56;2.78;;;0.80;;
43088;SDS011;28709;52.030;5.652;2023-04-25T14:12:24;4.35;;;0.80;;
43088;SDS011;28709;52.030;5.652;2023-04-25T14:14:50;4.60;;;0.95;;
43088;SDS011;28709;52.030;5.652;2023-04-25T14:17:17;4.55;;;1.80;;
43088;SDS011;28709;52.030;5.652;2023-04-25T14:19:46;2.70;;;1.10;;
43088;SDS011;28709;52.030;5.652;2023-04-25T14:22:13;4.22;;;0.98;;
43088;SDS011;28709;52.030;5.652;2023-04-25T14:24:40;2.50;;;0.65;;
43088;SDS011;28709;52.030;5.652;2023-04-25T14:27:05;3.67;;;1.10;;
43088;SDS011;28709;52.030;5.652;2023-04-25T14:29:31;8.07;;;1.20;;
43088;SDS011;28709;52.030;5.652;2023-04-25T14:31:57;2.90;;;1.10;;
43088;SDS011;28709;52.030;5.652;2023-04-25T14:34:24;2.50;;;0.75;;
43088;SDS011;28709;52.030;5.652;2023-04-25T14:36:50;2.45;;;0.82;;
43088;SDS011;28709;52.030;5.652;2023-04-25T14:39:16;3.42;;;0.88;;
43088;SDS011;28709;52.030;5.652;2023-04-25T14:41:43;5.05;;;1.00;;
43088;SDS011;28709;52.030;5.652;2023-04-25T14:44:09;4.70;;;0.82;;
43088;SDS011;28709;52.030;5.652;2023-04-25T14:46:35;3.35;;;0.80;;
43088;SDS011;28709;52.030;5.652;2023-04-25T14:49:01;6.82;;;1.10;;
43088;SDS011;28709;52.030;5.652;2023-04-25T14:51:27;8.50;;;1.00;;
43088;SDS011;28709;52.030;5.652;2023-04-25T14:53:52;5.95;;;1.10;;
43088;SDS011;28709;52.030;5.652;2023-04-25T14:56:18;3.22;;;1.00;;
43088;SDS011;28709;52.030;5.652;2023-04-25T14:58:44;3.83;;;0.93;;
43088;SDS011;28709;52.030;5.652;2023-04-25T15:01:10;6.55;;;1.40;;